»·PEaware :: N922SB KAVX-KSAN

N922SB :: KAVX-KSAN

FLIGHT INFORMATION

Flight Status: Arrived
Operator: Privately registered:
United States
More flights under this callsign
Pilot: Sean B. (13609)
Aircraft: Unknown
(VIPJ)
More flights by this aircraft type
Origin: KAVX Catalina
United States
Destination: KSAN San Diego Intl-Lindbergh
United States
More flights between these airports :: More routes between these airports
Route: SXC V208 LAX118R CARDI MZB320R MZB
File this flight plan on PilotEdge
Remarks: TEC Route CSTN54
Altitude:
(Current/Filed)
11,000ft
Speed:
(Current/Filed)
400kts
Departed: 06-Oct-17 09:25 AM
Arrived: 06-Oct-17 09:49 AM
Distance/Time
Traveled:
74nm/0:23
Distance/Time
To Go:
Arrived

Flight Plot

Page will automatically refresh every two minutes.


Map Options




Map Legend


Flown Route
Filed Route
Departure Airport
Arrival Airport
Navaid (VOR, NDB)
Fix

Horizontal Profiles

Position Reports

Time Latitude Longitude Heading Altitude Ground
Speed
06-Oct-17 08:57 33.403877 -118.414883 254 1553ft 0kts
06-Oct-17 08:58 33.403877 -118.414883 254 1553ft 0kts
06-Oct-17 08:59 33.403877 -118.414883 254 1553ft 0kts
06-Oct-17 09:00 33.403877 -118.414883 254 1553ft 0kts
06-Oct-17 09:01 33.403877 -118.414883 254 1553ft 0kts
06-Oct-17 09:02 33.403877 -118.414883 254 1553ft 0kts
06-Oct-17 09:03 33.403877 -118.414883 254 1553ft 0kts
06-Oct-17 09:04 33.403877 -118.414883 254 1553ft 0kts
06-Oct-17 09:05 33.403877 -118.414883 254 1553ft 0kts
06-Oct-17 09:06 33.403877 -118.414883 254 1553ft 0kts
06-Oct-17 09:07 33.403877 -118.414883 254 1553ft 0kts
06-Oct-17 09:08 33.403877 -118.414883 254 1553ft 0kts
06-Oct-17 09:09 33.403877 -118.414883 254 1553ft 0kts
06-Oct-17 09:10 33.403877 -118.414883 254 1553ft 0kts
06-Oct-17 09:11 33.403877 -118.414883 254 1553ft 0kts
06-Oct-17 09:12 33.403877 -118.414883 254 1553ft 0kts
06-Oct-17 09:13 33.403877 -118.414883 254 1553ft 0kts
06-Oct-17 09:14 33.403877 -118.414883 254 1553ft 0kts
06-Oct-17 09:15 33.403877 -118.414883 254 1553ft 0kts
06-Oct-17 09:16 33.403877 -118.414883 254 1553ft 0kts
06-Oct-17 09:17 33.403877 -118.414883 254 1553ft 0kts
06-Oct-17 09:18 33.403877 -118.414883 254 1553ft 0kts
06-Oct-17 09:19 33.403877 -118.414883 254 1553ft 0kts
06-Oct-17 09:20 33.403875 -118.414891 256 1553ft 0kts
06-Oct-17 09:21 33.405286 -118.414555 53 1553ft 10kts
06-Oct-17 09:22 33.407012 -118.411631 55 1553ft 2kts
06-Oct-17 09:23 33.407078 -118.411515 56 1553ft 0kts
06-Oct-17 09:24 33.407078 -118.411515 56 1553ft 0kts
06-Oct-17 09:25 33.407078 -118.411515 56 1553ft 0kts
06-Oct-17 09:26 33.407078 -118.411515 56 1553ft 0kts
06-Oct-17 09:27 33.407078 -118.411515 56 1553ft 0kts
06-Oct-17 09:28 33.407166 -118.411426 26 1553ft 3kts
06-Oct-17 09:29 33.397715 -118.426485 222 1899ft 159kts
06-Oct-17 09:30 33.369844 -118.394765 93 3990ft 201kts
06-Oct-17 09:31 33.362070 -118.322430 97 5129ft 245kts
06-Oct-17 09:32 33.351044 -118.236140 97 9282ft 272kts
06-Oct-17 09:33 33.338208 -118.138447 98 11003ft 357kts
06-Oct-17 09:34 33.321817 -118.015292 98 10947ft 378kts
06-Oct-17 09:35 33.305302 -117.891907 98 11004ft 379kts
06-Oct-17 09:36 33.288544 -117.767640 98 11003ft 384kts
06-Oct-17 09:37 33.270083 -117.643144 99 11002ft 386kts
06-Oct-17 09:38 33.224462 -117.532708 131 11002ft 389kts
06-Oct-17 09:39 33.157141 -117.447637 133 10975ft 381kts
06-Oct-17 09:40 33.071029 -117.385455 154 10992ft 375kts
06-Oct-17 09:41 32.980957 -117.335410 155 10912ft 343kts
06-Oct-17 09:42 32.901452 -117.291359 155 9065ft 285kts
06-Oct-17 09:43 32.834405 -117.254269 154 7040ft 267kts
06-Oct-17 09:44 32.771206 -117.217235 148 4939ft 236kts
06-Oct-17 09:45 32.749934 -117.165213 91 4981ft 184kts
06-Oct-17 09:46 32.746837 -117.106589 91 4996ft 180kts
06-Oct-17 09:47 32.743675 -117.044642 92 3985ft 196kts
06-Oct-17 09:48 32.700293 -117.030805 213 2970ft 188kts
06-Oct-17 09:49 32.703858 -117.075980 300 2652ft 150kts
06-Oct-17 09:50 32.716622 -117.117875 285 2113ft 121kts
06-Oct-17 09:51 32.725193 -117.154649 285 1032ft 109kts
06-Oct-17 09:52 32.733146 -117.187630 288 18ft 67kts
06-Oct-17 09:53 32.734626 -117.189363 105 17ft 8kts
06-Oct-17 09:54 32.733994 -117.186719 106 18ft 9kts
06-Oct-17 09:55 32.733111 -117.183092 106 18ft 13kts
06-Oct-17 09:56 32.731931 -117.178021 99 24ft 13kts
06-Oct-17 09:57 32.732192 -117.177030 192 28ft 0kts
06-Oct-17 09:58 32.732192 -117.177030 192 28ft 0kts
06-Oct-17 09:59 32.732192 -117.177030 192 28ft 0kts
06-Oct-17 10:00 32.732192 -117.177030 192 28ft 0kts

Navigation Log

Ident Type
1. KAVX Airport
2. SXC Navaid
3. CARDI Fix
4. MZB Navaid
5. KSAN Airport